メキシコシティ の空港の天気 - METARとTAF

メキシコ・シティ国際空港 ( MMMX / MEX ) - メキシコ メキシコシティ
飛行場実況気象(Metar)
観測時間08/18 18:49 CDT (08/18 23:49 UTC)
風向・風速北 5m/s
視程10km以上
天気現象
全天の4割程度の雲 雲底高度 610m
全天の8割程度の雲 雲底高度 910m
全天を覆う雲 雲底高度 2440m
気温22℃
湿度43%
気圧1010.1hPa
METARMMMX 182349Z 36010KT 10SM SCT020 BKN030 OVC080 22/09 A3028 NOSIG RMK SLP101 57018 903 8/83/
過去の天気等 Google飛行場航空写真 Wunderground天気予報

過去48時間のMETAR

飛行場予報(TAF)
発表時間: 8/18 18:23 CDT (8/18 23:23 UTC)
予報対象時間: 18日19時 CDT ~ 20日1時 CDT
風向・風速北東 5m/s
視程10km以上
全天の4割程度の雲 雲底高度 610m
全天の8割程度の雲 雲底高度 2440m
全天の8割程度の雲 雲底高度 7620m
18日19時 CDT ~ 18日23時 CDT に一時的に
視程8050m
天気現象弱い雨
全天の8割程度の積乱雲 雲底高度 610m
19日13時 CDT から
風向・風速北東 7m/s
視程10km以上
全天の4割程度の雲 雲底高度 610m
全天の8割程度の雲 雲底高度 2440m
全天の8割程度の雲 雲底高度 7620m
19日17時 CDT から 確率 40% で
視程8050m
天気現象弱い雨
全天の8割程度の積乱雲 雲底高度 610m
20日0時 CDT から
風向・風速北北西 3m/s
視程10km以上
全天の4割程度の雲 雲底高度 610m
全天の8割程度の雲 雲底高度 2440m
TAF MMMX 182323Z 1900/2006 04009KT P6SM SCT020 BKN080 BKN250 TX25/1921Z TN14/1912Z
TEMPO 1900/1904 5SM -RA BKN020CB
FM191800 04014KT P6SM SCT020 BKN080 BKN250
PROB40 1922/2002 5SM -RA BKN020CB
FM200500 34006KT P6SM SCT020 BKN080